createdAt,value
2019-02-07T00:03:18.300Z,-0.80
2019-02-07T00:08:10.929Z,-0.70
2019-02-07T00:13:03.794Z,-0.70
2019-02-07T00:17:56.657Z,-0.70
2019-02-07T00:22:49.289Z,-0.60
2019-02-07T00:27:41.636Z,-0.60
2019-02-07T00:32:34.513Z,-0.50
2019-02-07T00:37:26.924Z,-0.40
2019-02-07T00:42:19.561Z,-0.30
2019-02-07T00:47:12.399Z,-0.30
2019-02-07T00:52:04.940Z,-0.20
2019-02-07T00:56:57.245Z,-0.20
2019-02-07T01:01:49.948Z,-0.20
2019-02-07T01:06:42.473Z,-0.10
2019-02-07T01:11:35.988Z,0.00
2019-02-07T01:16:28.729Z,0.10
2019-02-07T01:21:21.637Z,0.10
2019-02-07T01:26:14.344Z,0.20
2019-02-07T01:31:07.053Z,0.20
2019-02-07T01:35:59.757Z,0.20
2019-02-07T01:40:52.193Z,0.20
2019-02-07T01:45:45.144Z,0.20
2019-02-07T01:50:37.908Z,0.30
2019-02-07T01:55:30.144Z,0.20
2019-02-07T02:00:22.972Z,0.30
2019-02-07T02:05:18.049Z,0.30
2019-02-07T02:10:14.076Z,0.40
2019-02-07T02:15:08.520Z,0.50
2019-02-07T02:20:01.038Z,0.70
2019-02-07T02:24:53.226Z,0.80
2019-02-07T02:29:45.772Z,0.90
2019-02-07T02:34:38.321Z,1.00
2019-02-07T02:39:31.872Z,1.00
2019-02-07T02:44:24.694Z,1.10
2019-02-07T02:49:17.703Z,1.10
2019-02-07T02:54:33.293Z,1.20
2019-02-07T02:59:29.977Z,1.30
2019-02-07T03:04:24.072Z,1.20
2019-02-07T03:09:20.654Z,1.20
2019-02-07T03:14:15.022Z,1.30
2019-02-07T03:19:09.017Z,1.40
2019-02-07T03:24:19.712Z,1.40
2019-02-07T03:29:13.890Z,1.50
2019-02-07T03:34:14.129Z,1.50
2019-02-07T03:39:15.717Z,1.60
2019-02-07T03:44:24.926Z,1.60
2019-02-07T03:49:24.630Z,1.70
2019-02-07T03:54:27.241Z,1.70
2019-02-07T03:59:36.152Z,1.70
2019-02-07T04:04:46.685Z,1.70
2019-02-07T04:09:58.887Z,1.80
2019-02-07T04:14:59.013Z,1.90
2019-02-07T04:20:08.275Z,1.90
2019-02-07T04:25:18.708Z,2.00
2019-02-07T04:30:29.606Z,2.10
2019-02-07T04:35:38.947Z,2.10
2019-02-07T04:40:35.625Z,2.20
2019-02-07T04:45:41.514Z,2.20
2019-02-07T04:50:35.417Z,2.30
2019-02-07T04:55:45.977Z,2.40
2019-02-07T05:00:57.268Z,2.50
2019-02-07T05:05:51.977Z,2.60
2019-02-07T05:10:55.331Z,2.60
2019-02-07T05:15:55.270Z,2.70
2019-02-07T05:20:55.217Z,2.80
2019-02-07T05:26:05.402Z,2.80
2019-02-07T05:31:12.073Z,2.90
2019-02-07T05:36:06.489Z,2.90
2019-02-07T05:41:00.553Z,3.00
2019-02-07T05:45:57.517Z,3.00
2019-02-07T05:50:53.960Z,3.00
2019-02-07T05:56:04.178Z,3.00
2019-02-07T06:00:59.092Z,3.00
2019-02-07T06:05:56.557Z,3.10
2019-02-07T06:11:03.099Z,3.10
2019-02-07T06:16:03.364Z,3.10
2019-02-07T06:21:12.651Z,3.10
2019-02-07T06:26:09.677Z,3.00
2019-02-07T06:31:19.863Z,3.10
2019-02-07T06:36:24.652Z,3.10
2019-02-07T06:41:24.642Z,3.10
2019-02-07T06:46:18.814Z,3.20
2019-02-07T06:51:23.289Z,3.20
2019-02-07T06:56:26.601Z,3.30
2019-02-07T07:01:23.545Z,3.30
2019-02-07T07:06:24.989Z,3.40
2019-02-07T07:11:22.081Z,3.40
2019-02-07T07:16:18.724Z,3.40
2019-02-07T07:21:28.961Z,3.50
2019-02-07T07:26:39.691Z,3.60
2019-02-07T07:31:50.220Z,3.60
2019-02-07T07:36:56.424Z,3.60
2019-02-07T07:42:01.153Z,3.60
2019-02-07T07:46:57.851Z,3.80
2019-02-07T07:52:08.389Z,3.80
2019-02-07T07:57:20.923Z,3.90
2019-02-07T08:02:23.377Z,4.00
2019-02-07T08:07:17.808Z,4.10
2019-02-07T08:12:36.176Z,4.20
2019-02-07T08:17:47.610Z,4.30
2019-02-07T08:22:49.909Z,4.30
2019-02-07T08:27:56.305Z,4.40
2019-02-07T08:32:59.362Z,4.40
2019-02-07T08:38:02.566Z,4.50
2019-02-07T08:43:00.256Z,4.50
2019-02-07T08:47:59.830Z,4.60
2019-02-07T08:53:10.134Z,4.60
2019-02-07T08:58:19.070Z,4.70
2019-02-07T09:03:18.694Z,4.80
2019-02-07T09:08:31.549Z,4.90
2019-02-07T09:13:31.752Z,4.90
2019-02-07T09:18:41.041Z,4.90
2019-02-07T09:23:38.117Z,5.00
2019-02-07T09:28:34.841Z,5.10
2019-02-07T09:33:45.299Z,5.20
2019-02-07T09:38:42.536Z,5.30
2019-02-07T09:43:36.457Z,5.30
2019-02-07T09:48:33.261Z,5.50
2019-02-07T09:53:27.313Z,5.70
2019-02-07T09:58:24.822Z,6.00
2019-02-07T10:03:37.410Z,6.80
2019-02-07T10:08:34.769Z,7.80
2019-02-07T10:13:31.528Z,7.70
2019-02-07T10:18:41.684Z,7.30
2019-02-07T10:23:51.776Z,7.10
2019-02-07T10:29:03.970Z,7.00
2019-02-07T10:33:57.980Z,6.90
2019-02-07T10:39:00.733Z,6.90
2019-02-07T10:44:10.065Z,6.80
2019-02-07T10:49:22.603Z,6.80
2019-02-07T10:54:19.457Z,6.90
2019-02-07T10:59:19.521Z,6.90
2019-02-07T11:04:16.079Z,6.90
2019-02-07T11:09:27.089Z,6.80
2019-02-07T11:14:27.038Z,6.60
2019-02-07T11:19:33.092Z,6.40
2019-02-07T11:24:37.749Z,6.30
2019-02-07T11:29:31.715Z,6.30
2019-02-07T11:34:45.975Z,6.30
2019-02-07T11:39:39.085Z,6.30
2019-02-07T11:44:42.353Z,6.50
2019-02-07T11:49:38.675Z,6.70
2019-02-07T11:54:35.732Z,7.20
2019-02-07T11:59:30.173Z,7.70
2019-02-07T12:04:24.305Z,8.00
2019-02-07T12:09:27.633Z,8.00
2019-02-07T12:14:21.925Z,8.60
2019-02-07T12:19:19.538Z,9.10
2019-02-07T12:24:17.912Z,9.90
2019-02-07T12:29:17.933Z,10.20
2019-02-07T12:34:19.891Z,10.40
2019-02-07T12:39:19.445Z,10.60
2019-02-07T12:44:28.593Z,10.60
2019-02-07T12:49:35.231Z,10.50
2019-02-07T12:54:44.154Z,10.40
2019-02-07T12:59:56.269Z,10.20
2019-02-07T13:04:53.278Z,10.10
2019-02-07T13:09:50.305Z,10.10
2019-02-07T13:14:47.059Z,9.90
2019-02-07T13:19:41.145Z,9.70
2019-02-07T13:24:41.883Z,9.50
2019-02-07T13:29:35.782Z,9.50
2019-02-07T13:34:42.091Z,9.40
2019-02-07T13:39:51.797Z,9.20
2019-02-07T13:44:58.001Z,9.30
2019-02-07T13:50:06.993Z,9.70
2019-02-07T13:55:18.327Z,9.90
2019-02-07T14:00:31.473Z,10.20
2019-02-07T14:05:34.080Z,10.30
2019-02-07T14:10:34.041Z,10.20
2019-02-07T14:15:28.061Z,10.00
2019-02-07T14:20:24.829Z,9.80
2019-02-07T14:25:27.786Z,9.70
2019-02-07T14:30:21.940Z,9.60
2019-02-07T14:35:19.796Z,9.50
2019-02-07T14:40:30.336Z,9.40
2019-02-07T14:45:40.718Z,9.60
2019-02-07T14:50:33.431Z,9.60
2019-02-07T14:55:26.341Z,9.50
2019-02-07T15:00:24.489Z,9.30
2019-02-07T15:05:17.227Z,9.10
2019-02-07T15:10:13.033Z,9.00
2019-02-07T15:15:08.505Z,9.00
2019-02-07T15:20:01.187Z,8.80
2019-02-07T15:24:53.838Z,8.70
2019-02-07T15:29:46.781Z,8.60
2019-02-07T15:34:39.509Z,8.40
2019-02-07T15:39:32.156Z,8.30
2019-02-07T15:44:24.786Z,8.10
2019-02-07T15:49:17.273Z,8.10
2019-02-07T15:54:09.969Z,7.90
2019-02-07T15:59:19.353Z,7.70
2019-02-07T16:04:13.559Z,7.60
2019-02-07T16:09:08.581Z,7.40
2019-02-07T16:14:01.314Z,7.30
2019-02-07T16:18:54.055Z,7.10
2019-02-07T16:23:46.456Z,6.90
2019-02-07T16:28:38.782Z,6.70
2019-02-07T16:33:31.258Z,6.40
2019-02-07T16:38:23.729Z,6.30
2019-02-07T16:43:16.169Z,6.20
2019-02-07T16:48:09.392Z,6.20
2019-02-07T16:53:01.807Z,6.20
2019-02-07T16:57:54.119Z,6.20
2019-02-07T17:02:47.122Z,6.10
2019-02-07T17:07:39.772Z,6.00
2019-02-07T17:12:32.271Z,6.00
2019-02-07T17:17:24.866Z,5.90
2019-02-07T17:22:17.530Z,5.90
2019-02-07T17:27:10.398Z,5.90
2019-02-07T17:32:03.204Z,5.90
2019-02-07T17:36:55.921Z,5.80
2019-02-07T17:41:48.621Z,5.60
2019-02-07T17:46:41.124Z,5.40
2019-02-07T17:51:33.922Z,5.30
2019-02-07T17:56:26.525Z,5.30
2019-02-07T18:01:19.500Z,5.30
2019-02-07T18:06:12.269Z,5.20
2019-02-07T18:11:05.621Z,5.10
2019-02-07T18:15:58.189Z,5.00
2019-02-07T18:20:50.688Z,5.00
2019-02-07T18:25:43.193Z,5.10
2019-02-07T18:30:35.600Z,5.30
2019-02-07T18:35:28.870Z,5.30
2019-02-07T18:40:27.651Z,5.20
2019-02-07T18:45:21.501Z,5.10
2019-02-07T18:50:29.473Z,4.90
2019-02-07T18:55:21.835Z,4.90
2019-02-07T19:00:17.619Z,4.80
2019-02-07T19:05:13.783Z,4.80
2019-02-07T19:10:08.998Z,4.60
2019-02-07T19:15:01.416Z,4.60
2019-02-07T19:19:53.742Z,4.60
2019-02-07T19:24:46.134Z,4.50
2019-02-07T19:29:38.870Z,4.50
2019-02-07T19:34:31.768Z,4.60
2019-02-07T19:39:24.209Z,4.70
2019-02-07T19:44:16.868Z,4.90
2019-02-07T19:49:09.625Z,5.00
2019-02-07T19:54:02.186Z,4.90
2019-02-07T19:58:54.636Z,5.00
2019-02-07T20:03:47.289Z,4.90
2019-02-07T20:08:39.881Z,4.80
2019-02-07T20:13:32.674Z,4.70
2019-02-07T20:18:25.378Z,4.60
2019-02-07T20:23:17.980Z,4.50
2019-02-07T20:28:10.685Z,4.50
2019-02-07T20:33:03.093Z,4.50
2019-02-07T20:37:55.606Z,4.60
2019-02-07T20:42:48.081Z,4.70
2019-02-07T20:47:40.693Z,4.80
2019-02-07T20:52:33.004Z,4.90
2019-02-07T20:57:25.383Z,4.90
2019-02-07T21:02:18.348Z,5.00
2019-02-07T21:07:10.798Z,5.10
2019-02-07T21:12:03.344Z,5.20
2019-02-07T21:16:56.064Z,5.20
2019-02-07T21:21:48.613Z,5.20
2019-02-07T21:26:41.245Z,5.20
2019-02-07T21:31:33.953Z,5.20
2019-02-07T21:36:26.716Z,5.20
2019-02-07T21:41:19.036Z,5.10
2019-02-07T21:46:11.413Z,5.10
2019-02-07T21:51:04.064Z,4.90
2019-02-07T21:55:56.540Z,4.80
2019-02-07T22:00:48.918Z,4.70
2019-02-07T22:05:41.367Z,4.60
2019-02-07T22:10:34.128Z,4.40
2019-02-07T22:15:28.064Z,4.40
2019-02-07T22:20:22.108Z,4.30
2019-02-07T22:25:14.969Z,4.30
2019-02-07T22:30:19.607Z,4.40
2019-02-07T22:35:13.005Z,4.50
2019-02-07T22:40:08.385Z,4.60
2019-02-07T22:45:01.205Z,4.60
2019-02-07T22:49:53.665Z,4.60
2019-02-07T22:54:46.544Z,4.50
2019-02-07T22:59:38.972Z,4.50
2019-02-07T23:04:31.638Z,4.50
2019-02-07T23:09:24.469Z,4.50
2019-02-07T23:14:17.465Z,4.40
2019-02-07T23:19:09.863Z,4.30
2019-02-07T23:24:02.185Z,4.30
2019-02-07T23:28:54.676Z,4.20
2019-02-07T23:33:47.873Z,4.10
2019-02-07T23:38:40.288Z,4.00
2019-02-07T23:43:32.938Z,3.90
2019-02-07T23:48:25.865Z,3.80
2019-02-07T23:53:18.556Z,3.70
2019-02-07T23:58:11.140Z,3.70
